Time;durP1;ratioP1;P1;durP2;ratioP2;P2;SDS_P1;SDS_P2;PMS_P1;PMS_P2;Temp;Humidity;BMP_temperature;BMP_pressure;BME280_temperature;BME280_humidity;BME280_pressure;Samples;Min_cycle;Max_cycle;Signal;HPM_P1;HPM_P2
2023/04/30 00:01:30;;;;;;;0.60;0.60;;;;;;;12.30;99.74;96696.09;5026526;28;20136;-58
2023/04/30 00:03:56;;;;;;;0.50;0.50;;;;;;;12.29;99.67;96691.75;5027319;28;20141;-58
2023/04/30 00:06:23;;;;;;;0.50;0.50;;;;;;;12.31;99.23;96694.94;5027568;28;20089;-58
2023/04/30 00:08:53;;;;;;;0.60;0.60;;;;;;;12.30;98.71;96696.09;5027045;28;20053;-58
2023/04/30 00:11:20;;;;;;;0.57;0.57;;;;;;;12.29;99.29;96691.75;5027619;28;20111;-60
2023/04/30 00:13:47;;;;;;;0.60;0.60;;;;;;;12.31;99.50;96689.38;5027257;28;20515;-59
2023/04/30 00:16:13;;;;;;;0.60;0.60;;;;;;;12.19;100.00;96686.94;5027744;28;20119;-60
2023/04/30 00:18:40;;;;;;;0.60;0.60;;;;;;;11.82;100.00;96644.72;5027212;28;20126;-58
2023/04/30 00:21:06;;;;;;;0.50;0.50;;;;;;;12.16;100.00;96682.16;5027611;28;20053;-60
2023/04/30 00:23:33;;;;;;;0.60;0.60;;;;;;;12.08;100.00;96675.78;5027036;28;20201;-58
2023/04/30 00:26:00;;;;;;;0.52;0.52;;;;;;;12.23;98.39;96688.53;5027558;28;20089;-60
2023/04/30 00:28:27;;;;;;;0.50;0.50;;;;;;;12.13;98.79;96682.94;5026601;28;20053;-61
2023/04/30 00:30:53;;;;;;;0.60;0.60;;;;;;;12.20;100.00;96677.44;5027382;28;20068;-59
2023/04/30 00:33:20;;;;;;;0.60;0.60;;;;;;;11.92;100.00;96658.63;5027022;28;20114;-62
2023/04/30 00:35:46;;;;;;;0.60;0.60;;;;;;;11.95;99.76;96643.16;5026976;28;20053;-58
2023/04/30 00:38:13;;;;;;;0.60;0.60;;;;;;;11.89;97.27;96616.97;5025514;28;20532;-61
2023/04/30 00:40:41;;;;;;;0.50;0.50;;;;;;;11.51;96.40;96534.31;5026836;28;20081;-59
2023/04/30 00:43:07;;;;;;;0.60;0.60;;;;;;;12.33;98.23;96675.88;5026469;28;20077;-61
2023/04/30 00:45:34;;;;;;;0.60;0.60;;;;;;;12.39;98.18;96677.13;5026427;28;20466;-58
2023/04/30 00:48:01;;;;;;;0.60;0.60;;;;;;;12.50;97.45;96680.72;5026051;28;20061;-59
2023/04/30 00:50:28;;;;;;;0.50;0.50;;;;;;;12.48;98.10;96677.53;5026558;28;20140;-59
2023/04/30 00:52:56;;;;;;;0.50;0.50;;;;;;;12.25;97.53;96640.94;5026306;28;20041;-61
2023/04/30 00:55:22;;;;;;;0.50;0.50;;;;;;;12.53;97.67;96674.41;5024979;28;20479;-59
2023/04/30 00:57:50;;;;;;;0.60;0.60;;;;;;;12.41;98.45;96660.84;5025753;28;20160;-58
2023/04/30 01:00:17;;;;;;;0.50;0.50;;;;;;;12.05;98.78;96606.34;5026152;28;20172;-59
2023/04/30 01:02:43;;;;;;;0.60;0.60;;;;;;;12.55;97.49;96677.56;5026438;28;20084;-59
2023/04/30 01:05:10;;;;;;;0.50;0.50;;;;;;;12.34;96.86;96660.81;5026072;28;20053;-59
2023/04/30 01:07:40;;;;;;;0.57;0.57;;;;;;;12.61;95.77;96678.78;5026198;28;20475;-60
2023/04/30 01:10:07;;;;;;;0.50;0.50;;;;;;;12.53;97.45;96684.69;5024530;28;20053;-58
2023/04/30 01:12:46;;;;;;;0.60;0.60;;;;;;;12.55;97.52;96680.31;5025806;28;20156;-60
2023/04/30 01:15:26;;;;;;;0.50;0.50;;;;;;;12.57;96.98;96688.28;5026032;28;20074;-58
2023/04/30 01:18:12;;;;;;;0.50;0.50;;;;;;;12.59;97.06;96678.38;5026757;28;20514;-58
2023/04/30 01:20:48;;;;;;;0.60;0.60;;;;;;;12.51;96.97;96673.97;5026040;28;20069;-58
2023/04/30 01:23:53;;;;;;;0.60;0.60;;;;;;;12.51;97.38;96675.94;5025941;28;20057;-58
2023/04/30 01:26:59;;;;;;;0.60;0.60;;;;;;;12.38;98.07;96664.41;5026398;28;20109;-59
2023/04/30 01:29:28;;;;;;;0.60;0.60;;;;;;;12.35;97.71;96667.97;5030286;28;20054;-59
2023/04/30 01:31:54;;;;;;;0.60;0.60;;;;;;;12.13;97.14;96638.50;5021512;28;20064;-58
2023/04/30 01:34:21;;;;;;;0.60;0.60;;;;;;;11.92;96.89;96594.00;5005931;28;20116;-58
2023/04/30 01:36:57;;;;;;;0.60;0.60;;;;;;;12.33;97.12;96664.78;5021019;28;20473;-57
2023/04/30 01:39:29;;;;;;;0.60;0.60;;;;;;;12.27;98.40;96666.34;5005719;28;20050;-59
2023/04/30 01:42:15;;;;;;;0.50;0.50;;;;;;;12.28;98.63;96673.50;5005981;28;20051;-59
2023/04/30 01:44:57;;;;;;;0.50;0.50;;;;;;;12.29;98.06;96663.97;5005501;28;20674;-58
2023/04/30 01:48:07;;;;;;;0.60;0.60;;;;;;;12.04;98.39;96647.19;5005939;28;20057;-59
2023/04/30 01:50:53;;;;;;;0.60;0.60;;;;;;;11.97;98.63;96665.78;5013408;28;20420;-58
2023/04/30 01:53:41;;;;;;;0.60;0.60;;;;;;;12.04;99.15;96663.06;5005902;28;20104;-58
2023/04/30 01:56:42;;;;;;;0.60;0.60;;;;;;;12.08;99.32;96666.66;5005714;28;20156;-59
2023/04/30 01:59:09;;;;;;;0.50;0.50;;;;;;;12.04;98.43;96668.63;5005076;28;20140;-60
2023/04/30 02:01:36;;;;;;;0.50;0.50;;;;;;;12.01;98.65;96669.41;5005966;28;20622;-59
2023/04/30 02:04:03;;;;;;;0.50;0.50;;;;;;;12.22;96.58;96660.38;5005270;28;20499;-58
2023/04/30 02:06:30;;;;;;;0.60;0.60;;;;;;;12.06;97.19;96667.03;5005710;28;20077;-57
2023/04/30 02:09:04;;;;;;;0.50;0.50;;;;;;;12.07;97.00;96667.84;5005377;28;20054;-58
2023/04/30 02:11:30;;;;;;;;;;;;;;;12.17;95.71;96658.78;5006273;28;20825;-57
2023/04/30 02:13:57;;;;;;;0.47;0.47;;;;;;;11.94;97.76;96658.25;5005145;28;20020;-59
2023/04/30 02:16:23;;;;;;;0.55;0.55;;;;;;;11.91;99.01;96659.84;5003895;28;20141;-58
2023/04/30 02:18:50;;;;;;;0.50;0.50;;;;;;;11.66;98.03;96608.16;5003986;28;20057;-60
2023/04/30 02:21:17;;;;;;;0.52;0.52;;;;;;;11.90;98.26;96646.34;5005260;28;20057;-61
2023/04/30 02:23:44;;;;;;;0.52;0.52;;;;;;;11.95;98.55;96665.38;5004514;28;20050;-58
2023/04/30 02:26:10;;;;;;;0.50;0.50;;;;;;;11.99;99.12;96661.47;5005243;28;20166;-59
2023/04/30 02:28:37;;;;;;;0.50;0.50;;;;;;;11.97;97.96;96658.28;5003394;28;20064;-57
2023/04/30 02:31:04;;;;;;;0.57;0.57;;;;;;;11.30;98.40;96568.25;5004974;28;20711;-58
2023/04/30 02:33:30;;;;;;;0.50;0.50;;;;;;;11.87;98.38;96658.22;5023506;28;20107;-60
2023/04/30 02:35:59;;;;;;;0.50;0.50;;;;;;;11.91;98.07;96653.47;5024291;28;20049;-57
2023/04/30 02:38:26;;;;;;;0.60;0.60;;;;;;;12.01;97.50;96653.53;5023624;28;20065;-58
2023/04/30 02:40:52;;;;;;;0.50;0.50;;;;;;;11.45;97.33;96571.94;5023266;28;20049;-57
2023/04/30 02:43:19;;;;;;;0.55;0.55;;;;;;;11.74;97.00;96631.97;5023385;28;20049;-58
2023/04/30 02:45:46;;;;;;;0.60;0.60;;;;;;;11.87;97.61;96661.00;5023003;28;20076;-57
2023/04/30 02:48:12;;;;;;;0.50;0.50;;;;;;;11.89;97.41;96658.59;5023051;28;20053;-58
2023/04/30 02:50:39;;;;;;;0.60;0.60;;;;;;;11.92;96.92;96655.84;5021835;28;20156;-57
2023/04/30 02:53:06;;;;;;;0.55;0.55;;;;;;;12.00;96.91;96656.69;5024199;28;20072;-57
2023/04/30 02:55:32;;;;;;;0.50;0.50;;;;;;;12.04;96.73;96646.41;5022664;28;20111;-59
2023/04/30 02:57:59;;;;;;;0.50;0.50;;;;;;;12.05;95.29;96637.69;5024862;28;20049;-58
2023/04/30 03:00:26;;;;;;;0.50;0.50;;;;;;;12.19;93.94;96659.16;5024061;28;20106;-59
2023/04/30 03:02:52;;;;;;;0.60;0.60;;;;;;;11.29;93.78;96515.97;5024210;28;20471;-57
2023/04/30 03:05:19;;;;;;;0.60;0.60;;;;;;;12.28;93.17;96661.59;5022487;28;20111;-59
2023/04/30 03:07:45;;;;;;;0.50;0.50;;;;;;;12.22;93.23;96663.16;5024025;28;20045;-57
2023/04/30 03:10:12;;;;;;;0.50;0.50;;;;;;;11.77;93.04;96614.56;5023983;28;20084;-60
2023/04/30 03:12:39;;;;;;;0.50;0.50;;;;;;;12.10;93.45;96651.22;5023893;28;20064;-57
2023/04/30 03:15:07;;;;;;;0.60;0.60;;;;;;;12.09;94.27;96660.69;5023762;28;20061;-59
2023/04/30 03:17:34;;;;;;;0.50;0.50;;;;;;;12.00;95.13;96651.13;5023691;28;20597;-58
2023/04/30 03:20:01;;;;;;;0.50;0.50;;;;;;;11.42;94.99;96554.09;5023837;28;20049;-58
2023/04/30 03:22:27;;;;;;;0.50;0.50;;;;;;;12.10;93.99;96658.72;5023732;28;20049;-57
2023/04/30 03:24:54;;;;;;;0.60;0.60;;;;;;;12.07;94.05;96646.44;5022167;28;20084;-58
2023/04/30 03:27:21;;;;;;;0.50;0.50;;;;;;;11.82;93.19;96611.41;5024382;28;20049;-57
2023/04/30 03:29:48;;;;;;;0.55;0.55;;;;;;;12.17;93.68;96661.56;5022469;28;20140;-57
2023/04/30 03:32:14;;;;;;;0.55;0.55;;;;;;;12.30;93.32;96670.34;5023416;28;20045;-58
2023/04/30 03:34:41;;;;;;;0.60;0.60;;;;;;;12.33;92.39;96687.00;5023529;28;20136;-58
2023/04/30 03:37:07;;;;;;;0.60;0.60;;;;;;;12.24;92.01;96656.00;5023114;28;20054;-59
2023/04/30 03:39:34;;;;;;;0.52;0.52;;;;;;;12.31;91.91;96672.72;5023443;28;20057;-58
2023/04/30 03:42:02;;;;;;;0.60;0.60;;;;;;;12.07;91.55;96651.19;5023447;28;20061;-59
2023/04/30 03:44:29;;;;;;;0.50;0.50;;;;;;;12.30;92.14;96681.44;5023464;28;20056;-60
2023/04/30 03:46:55;;;;;;;0.52;0.52;;;;;;;12.31;92.33;96678.28;5023108;28;20409;-57
2023/04/30 03:49:22;;;;;;;0.50;0.50;;;;;;;12.06;93.63;96682.91;5022246;28;20132;-58
2023/04/30 03:51:49;;;;;;;0.57;0.57;;;;;;;12.15;92.99;96688.91;5023485;28;20057;-57
2023/04/30 03:54:15;;;;;;;0.60;0.60;;;;;;;12.22;93.70;96694.47;5023637;28;20050;-58
2023/04/30 03:56:43;;;;;;;0.50;0.50;;;;;;;12.44;92.98;96698.16;5023788;28;20628;-58
2023/04/30 03:59:10;;;;;;;0.60;0.60;;;;;;;12.32;92.73;96713.19;5023397;28;20054;-59
2023/04/30 04:01:36;;;;;;;0.60;0.60;;;;;;;12.42;92.10;96673.56;5022111;28;20083;-57
2023/04/30 04:04:03;;;;;;;0.60;0.60;;;;;;;12.63;91.12;96695.84;5021790;28;20050;-57
2023/04/30 04:06:31;;;;;;;0.57;0.57;;;;;;;12.64;91.27;96697.44;5023577;28;20050;-58
2023/04/30 04:08:57;;;;;;;0.60;0.60;;;;;;;12.71;91.53;96694.69;5023193;28;20057;-58
2023/04/30 04:11:24;;;;;;;0.60;0.60;;;;;;;12.77;91.10;96690.31;5023665;28;20088;-60
2023/04/30 04:13:50;;;;;;;0.60;0.60;;;;;;;12.13;90.74;96588.53;5023541;28;20050;-58
2023/04/30 04:16:17;;;;;;;0.50;0.50;;;;;;;12.89;91.02;96681.63;5023236;28;20057;-60
2023/04/30 04:18:44;;;;;;;0.60;0.60;;;;;;;12.80;91.30;96694.31;5023642;28;20140;-57
2023/04/30 04:21:11;;;;;;;0.60;0.60;;;;;;;12.95;91.49;96693.94;5023517;28;20049;-59
2023/04/30 04:23:37;;;;;;;0.60;0.60;;;;;;;13.04;90.87;96688.81;5023278;28;20528;-57
2023/04/30 04:26:04;;;;;;;0.60;0.60;;;;;;;13.02;90.30;96671.75;5022937;28;20095;-58
2023/04/30 04:28:31;;;;;;;0.60;0.60;;;;;;;13.02;90.09;96652.31;5021749;28;20858;-57
2023/04/30 04:30:58;;;;;;;0.63;0.63;;;;;;;13.38;89.14;96681.72;5023117;28;20093;-60
2023/04/30 04:33:25;;;;;;;0.60;0.60;;;;;;;13.40;87.15;96690.44;5023301;28;20187;-57
2023/04/30 04:35:51;;;;;;;0.50;0.50;;;;;;;13.06;85.20;96658.66;5023356;28;20050;-58
2023/04/30 04:38:18;;;;;;;0.60;0.60;;;;;;;13.28;84.97;96671.38;5021552;28;20053;-58
2023/04/30 04:40:55;;;;;;;0.60;0.60;;;;;;;13.49;84.97;96699.22;5023107;28;20111;-58
2023/04/30 04:43:22;;;;;;;0.60;0.60;;;;;;;13.03;86.37;96703.94;5022628;28;20080;-57
2023/04/30 04:45:48;;;;;;;0.60;0.60;;;;;;;12.98;87.62;96693.16;5023966;28;20060;-57
2023/04/30 04:48:15;;;;;;;0.60;0.60;;;;;;;13.09;86.63;96693.19;5026391;28;20057;-58
2023/04/30 04:50:42;;;;;;;0.60;0.60;;;;;;;13.14;86.41;96690.84;5027129;28;20057;-58
2023/04/30 04:53:08;;;;;;;0.60;0.60;;;;;;;13.01;85.07;96634.00;5026706;28;20119;-57
2023/04/30 04:55:35;;;;;;;0.60;0.60;;;;;;;13.52;83.73;96703.97;5026352;28;20049;-59
2023/04/30 04:58:02;;;;;;;0.60;0.60;;;;;;;13.50;84.03;96698.00;5026628;28;20069;-59
2023/04/30 05:00:29;;;;;;;0.60;0.60;;;;;;;12.97;82.77;96622.06;5024929;28;20159;-58
2023/04/30 05:02:55;;;;;;;0.60;0.60;;;;;;;13.63;83.44;96695.63;5026202;28;20428;-61
2023/04/30 05:05:22;;;;;;;0.60;0.60;;;;;;;13.37;82.63;96699.59;5026383;28;20053;-58
2023/04/30 05:07:51;;;;;;;0.60;0.60;;;;;;;13.50;82.14;96689.66;5026279;28;20065;-58
2023/04/30 05:10:18;;;;;;;0.70;0.70;;;;;;;13.76;82.62;96701.56;5025795;28;20422;-56
2023/04/30 05:12:44;;;;;;;0.60;0.60;;;;;;;13.93;80.74;96700.75;5024290;28;20072;-56
2023/04/30 05:15:11;;;;;;;0.60;0.60;;;;;;;13.82;80.36;96633.16;5024784;28;20130;-58
2023/04/30 05:17:38;;;;;;;0.60;0.60;;;;;;;14.45;77.94;96699.84;5025712;28;20046;-57
2023/04/30 05:20:06;;;;;;;0.60;0.60;;;;;;;14.49;75.00;96703.44;5026247;28;20045;-57
2023/04/30 05:22:33;;;;;;;0.60;0.60;;;;;;;14.14;75.77;96658.94;5025795;28;20053;-59
2023/04/30 05:24:59;;;;;;;0.68;0.68;;;;;;;14.67;75.32;96701.34;5026122;28;20146;-56
2023/04/30 05:27:26;;;;;;;0.60;0.60;;;;;;;14.65;70.39;96700.97;5024033;28;20086;-58
2023/04/30 05:29:53;;;;;;;0.70;0.70;;;;;;;14.90;69.59;96710.00;5024617;28;20057;-57
2023/04/30 05:32:22;;;;;;;0.60;0.60;;;;;;;15.04;69.62;96705.16;5025180;28;20187;-56
2023/04/30 05:34:48;;;;;;;0.70;0.70;;;;;;;14.62;69.42;96618.16;5026132;28;20049;-57
2023/04/30 05:37:16;;;;;;;0.68;0.68;;;;;;;14.69;71.47;96640.41;5025331;28;20048;-57
2023/04/30 05:39:43;;;;;;;0.70;0.70;;;;;;;15.26;70.81;96700.22;5025282;28;20465;-57
2023/04/30 05:42:09;;;;;;;0.60;0.60;;;;;;;14.79;67.75;96676.63;5025583;28;20081;-58
2023/04/30 05:44:36;;;;;;;0.70;0.70;;;;;;;15.29;69.46;96693.03;5025512;28;20061;-56
2023/04/30 05:47:03;;;;;;;0.70;0.70;;;;;;;15.44;69.03;96695.34;5023764;28;20053;-57
2023/04/30 05:49:30;;;;;;;0.70;0.70;;;;;;;15.60;69.42;96692.81;5023771;28;20065;-57
2023/04/30 05:52:02;;;;;;;0.70;0.70;;;;;;;15.79;67.18;96692.25;5025248;28;20056;-58
2023/04/30 05:54:29;;;;;;;0.70;0.70;;;;;;;15.19;67.29;96610.97;5025852;28;20056;-57
2023/04/30 05:56:56;;;;;;;0.65;0.65;;;;;;;15.80;64.90;96696.66;5025163;28;20053;-59
2023/04/30 05:59:23;;;;;;;0.70;0.70;;;;;;;15.87;63.88;96702.16;5025159;28;20084;-56
2023/04/30 06:01:49;;;;;;;0.73;0.73;;;;;;;16.16;61.78;96700.69;5025373;28;20136;-57
2023/04/30 06:04:16;;;;;;;0.70;0.70;;;;;;;16.12;59.74;96697.13;5025217;28;20413;-57
2023/04/30 06:06:43;;;;;;;0.70;0.70;;;;;;;16.30;60.29;96702.53;5023635;28;20119;-57
2023/04/30 06:09:10;;;;;;;0.70;0.70;;;;;;;15.71;60.31;96565.06;5024932;28;20057;-58
2023/04/30 06:11:37;;;;;;;0.80;0.80;;;;;;;16.66;59.51;96680.59;5022730;28;20056;-58
2023/04/30 06:14:06;;;;;;;0.70;0.70;;;;;;;16.81;58.66;96690.38;5018063;28;20057;-57
2023/04/30 06:16:33;;;;;;;0.70;0.70;;;;;;;16.74;58.17;96690.47;5025594;28;20061;-57
2023/04/30 06:18:59;;;;;;;0.70;0.70;;;;;;;16.41;59.15;96648.09;5024939;28;20049;-57
2023/04/30 06:21:26;;;;;;;0.80;0.80;;;;;;;16.69;60.05;96696.53;5025345;28;20150;-57
2023/04/30 06:23:53;;;;;;;0.70;0.70;;;;;;;16.80;58.32;96694.38;5024472;28;20049;-57
2023/04/30 06:26:19;;;;;;;0.80;0.80;;;;;;;16.64;57.87;96656.59;5025124;28;20049;-58
2023/04/30 06:28:46;;;;;;;0.77;0.77;;;;;;;17.06;55.79;96676.81;5024470;28;20566;-57
2023/04/30 06:31:13;;;;;;;0.80;0.80;;;;;;;17.24;55.04;96694.16;5023528;28;20132;-58
2023/04/30 06:33:39;;;;;;;0.73;0.73;;;;;;;17.07;54.64;96695.22;5024432;28;20054;-58
2023/04/30 06:36:06;;;;;;;0.70;0.70;;;;;;;17.25;54.03;96690.16;5022863;28;20847;-57
2023/04/30 06:38:33;;;;;;;0.80;0.80;;;;;;;17.42;53.66;96680.72;5024249;28;20417;-58
2023/04/30 06:40:59;;;;;;;0.80;0.80;;;;;;;17.56;53.56;96684.09;5024589;28;20045;-57
2023/04/30 06:43:26;;;;;;;0.70;0.70;;;;;;;16.04;52.13;96435.78;5022809;28;20491;-57
2023/04/30 06:45:53;;;;;;;0.80;0.80;;;;;;;17.80;51.42;96684.88;5024350;28;20080;-56
2023/04/30 06:48:19;;;;;;;0.80;0.80;;;;;;;17.58;50.06;96636.84;5024148;28;20064;-57
2023/04/30 06:50:46;;;;;;;0.80;0.80;;;;;;;17.66;50.79;96682.31;5024240;28;20855;-56
2023/04/30 06:53:13;;;;;;;0.90;0.90;;;;;;;17.46;51.97;96684.25;5024446;28;20138;-56
2023/04/30 06:55:41;;;;;;;0.90;0.90;;;;;;;17.49;52.25;96683.41;5024211;28;20049;-56
2023/04/30 06:58:08;;;;;;;0.77;0.77;;;;;;;17.94;51.99;96681.88;5023695;28;20144;-57
2023/04/30 07:00:35;;;;;;;0.88;0.88;;;;;;;17.75;51.47;96686.19;5024108;28;20532;-58
2023/04/30 07:03:03;;;;;;;0.85;0.85;;;;;;;18.02;51.06;96681.31;5023860;28;20256;-56
2023/04/30 07:05:30;;;;;;;2.03;2.03;;;;;;;18.11;52.16;96677.94;5024250;28;20072;-58
2023/04/30 07:08:00;;;;;;;1.98;1.98;;;;;;;18.02;50.68;96677.69;5024324;28;20103;-57
2023/04/30 07:10:26;;;;;;;1.80;1.80;;;;;;;17.72;50.92;96633.03;5023274;28;20578;-56
2023/04/30 07:12:53;;;;;;;2.10;2.10;;;;;;;18.26;49.80;96679.25;5023967;28;20487;-58
2023/04/30 07:15:20;;;;;;;1.67;1.67;;;;;;;18.46;48.89;96677.31;5023837;28;20057;-57
2023/04/30 07:17:47;;;;;;;1.90;1.90;;;;;;;18.57;49.27;96680.69;5022541;28;20053;-57
2023/04/30 07:20:13;;;;;;;1.98;1.98;;;;;;;18.37;48.63;96677.03;5023583;28;20233;-57
2023/04/30 07:22:44;;;;;;;2.10;2.10;;;;;;;18.28;49.49;96654.41;5023818;28;20053;-57
2023/04/30 07:25:12;;;;;;;2.20;2.20;;;;;;;18.93;48.86;96675.94;5023377;28;20496;-57
2023/04/30 07:27:39;;;;;;;2.10;2.10;;;;;;;19.09;48.60;96622.63;5023852;28;20152;-57
2023/04/30 07:30:09;;;;;;;2.20;2.20;;;;;;;19.69;46.26;96671.78;5023412;28;20061;-59
2023/04/30 07:32:36;;;;;;;2.13;2.13;;;;;;;19.46;45.45;96629.78;5023486;28;20046;-57
2023/04/30 07:35:03;;;;;;;2.17;2.17;;;;;;;19.90;45.43;96660.00;5022083;28;20571;-57
2023/04/30 07:37:30;;;;;;;2.10;2.10;;;;;;;20.14;45.18;96674.69;5023745;28;20045;-57
2023/04/30 07:40:00;;;;;;;2.60;2.50;;;;;;;19.44;44.89;96592.94;5022062;28;20056;-56
2023/04/30 07:42:27;;;;;;;2.10;2.10;;;;;;;19.71;44.95;96617.94;5023335;28;20500;-57
2023/04/30 07:44:54;;;;;;;2.20;2.20;;;;;;;19.97;45.77;96687.13;5023312;28;20496;-58
2023/04/30 07:47:20;;;;;;;2.47;2.38;;;;;;;19.99;44.70;96662.19;5021804;28;20054;-57
2023/04/30 07:49:48;;;;;;;2.20;2.20;;;;;;;20.11;45.04;96693.19;5022827;28;20578;-57
2023/04/30 07:52:14;;;;;;;2.28;2.28;;;;;;;19.66;45.36;96638.16;5022444;28;20060;-57
2023/04/30 07:54:41;;;;;;;2.33;2.28;;;;;;;20.17;44.61;96673.81;5021722;28;20602;-58
2023/04/30 07:57:08;;;;;;;2.42;2.33;;;;;;;20.08;43.88;96676.41;5023529;28;20057;-57
2023/04/30 07:59:35;;;;;;;2.17;2.17;;;;;;;20.12;44.85;96682.75;5022033;28;20107;-57
2023/04/30 08:02:01;;;;;;;2.20;2.20;;;;;;;20.01;44.45;96682.22;5023498;28;20046;-57
2023/04/30 08:04:28;;;;;;;2.50;2.40;;;;;;;20.02;44.45;96673.34;5022625;28;20125;-58
2023/04/30 08:06:54;;;;;;;2.20;2.20;;;;;;;19.49;44.76;96643.75;5022258;28;20053;-56
2023/04/30 08:09:21;;;;;;;2.22;2.22;;;;;;;19.95;44.75;96672.75;5022405;28;20109;-57
2023/04/30 08:11:48;;;;;;;2.05;2.05;;;;;;;19.57;45.11;96674.50;5022924;28;20073;-56
2023/04/30 08:14:14;;;;;;;2.15;2.15;;;;;;;19.63;44.25;96678.38;5021661;28;20487;-58
2023/04/30 08:16:41;;;;;;;2.10;2.10;;;;;;;19.64;44.79;96665.88;5023174;28;20061;-56
2023/04/30 08:19:08;;;;;;;2.25;2.25;;;;;;;19.48;44.94;96725.69;5022763;28;20045;-57
2023/04/30 08:21:34;;;;;;;2.42;2.38;;;;;;;19.54;44.71;96668.53;5024631;28;20061;-57
2023/04/30 08:24:01;;;;;;;2.20;2.20;;;;;;;19.50;44.71;96673.44;5027003;28;20049;-57
2023/04/30 08:26:28;;;;;;;2.03;2.03;;;;;;;19.48;44.33;96597.25;5025506;28;20179;-58
2023/04/30 08:28:54;;;;;;;2.13;2.13;;;;;;;19.91;44.35;96660.78;5026794;28;20080;-56
2023/04/30 08:31:21;;;;;;;2.60;2.50;;;;;;;19.91;43.45;96667.22;5024897;28;20061;-58
2023/04/30 08:33:48;;;;;;;2.30;2.30;;;;;;;19.94;42.99;96637.41;5027006;28;20105;-56
2023/04/30 08:36:14;;;;;;;2.22;2.22;;;;;;;20.02;44.13;96630.38;5027055;28;20073;-59
2023/04/30 08:38:41;;;;;;;2.50;2.40;;;;;;;20.46;43.74;96595.81;5025012;28;20060;-57
2023/04/30 08:41:11;;;;;;;2.60;2.50;;;;;;;21.22;42.05;96648.25;5026780;28;20526;-58
2023/04/30 08:43:38;;;;;;;2.25;2.25;;;;;;;21.17;41.59;96600.91;5027018;28;20103;-57
2023/04/30 08:46:05;;;;;;;2.63;2.53;;;;;;;21.80;40.52;96643.97;5026397;28;20054;-58
2023/04/30 08:48:32;;;;;;;2.80;2.70;;;;;;;21.24;40.66;96595.06;5024975;28;20560;-59
2023/04/30 08:51:03;;;;;;;2.15;2.15;;;;;;;21.80;40.77;96643.97;5026486;28;20397;-57
2023/04/30 08:53:33;;;;;;;2.78;2.67;;;;;;;21.82;37.92;96595.56;5026796;28;20045;-57
2023/04/30 08:56:00;;;;;;;2.30;2.30;;;;;;;21.81;38.23;96645.56;5026330;28;20087;-57
2023/04/30 08:58:26;;;;;;;2.50;2.40;;;;;;;22.00;38.28;96641.66;5026988;28;20073;-58
2023/04/30 09:00:53;;;;;;;2.60;2.50;;;;;;;21.79;37.26;96641.59;5026698;28;20111;-57
2023/04/30 09:03:22;;;;;;;2.30;2.30;;;;;;;20.92;39.55;96637.47;5026420;28;20049;-58
2023/04/30 09:05:49;;;;;;;2.58;2.47;;;;;;;21.23;38.52;96621.66;5025948;28;20065;-58
2023/04/30 09:08:18;;;;;;;2.58;2.47;;;;;;;21.62;39.35;96624.03;5026376;28;20049;-56
2023/04/30 09:10:45;;;;;;;2.60;2.50;;;;;;;21.65;38.42;96569.53;5024372;28;20536;-57
2023/04/30 09:13:12;;;;;;;2.63;2.53;;;;;;;21.15;39.77;96619.53;5025922;28;20087;-57
2023/04/30 09:15:40;;;;;;;2.50;2.40;;;;;;;21.35;39.36;96581.44;5024833;28;20053;-58
2023/04/30 09:18:08;;;;;;;2.60;2.50;;;;;;;22.10;38.49;96617.94;5025875;28;20216;-57
2023/04/30 09:20:35;;;;;;;2.90;2.80;;;;;;;22.11;39.45;96613.88;5025848;28;20061;-57
2023/04/30 09:23:09;;;;;;;2.42;2.40;;;;;;;21.42;41.47;96611.41;5025970;28;20060;-56
2023/04/30 09:25:41;;;;;;;2.40;2.30;;;;;;;22.07;40.39;96612.44;5025169;28;20064;-58
2023/04/30 09:28:12;;;;;;;2.63;2.53;;;;;;;22.66;38.66;96614.34;5026064;28;20053;-58
2023/04/30 09:30:40;;;;;;;2.80;2.70;;;;;;;23.53;38.02;96610.13;5025649;28;20050;-57
2023/04/30 09:33:07;;;;;;;2.80;2.70;;;;;;;24.26;35.84;96583.59;5025314;28;20128;-57
2023/04/30 09:35:39;;;;;;;2.90;2.80;;;;;;;24.37;35.42;96566.94;5025361;28;20435;-57
2023/04/30 09:38:05;;;;;;;3.20;3.10;;;;;;;24.79;35.18;96601.84;5025971;28;20377;-58
2023/04/30 09:40:41;;;;;;;3.40;3.30;;;;;;;25.32;34.58;96585.94;5025738;28;20053;-57
2023/04/30 09:43:08;;;;;;;3.20;3.10;;;;;;;24.33;36.10;96600.25;5026119;28;20049;-58
2023/04/30 09:45:39;;;;;;;3.50;3.40;;;;;;;23.50;36.16;96560.19;5024038;28;20053;-57
2023/04/30 09:48:08;;;;;;;3.15;3.05;;;;;;;23.39;37.24;96590.94;5024007;28;20081;-57
2023/04/30 09:50:46;;;;;;;2.72;2.63;;;;;;;22.61;37.25;96561.28;5025415;28;20906;-57
2023/04/30 09:53:13;;;;;;;3.03;2.92;;;;;;;23.28;36.66;96525.56;5025884;28;20053;-57
2023/04/30 09:55:49;;;;;;;2.85;2.75;;;;;;;23.38;36.46;96592.16;5024685;28;20471;-57
2023/04/30 09:58:17;;;;;;;3.10;3.00;;;;;;;22.98;37.23;96597.00;5025596;28;20465;-58
2023/04/30 10:00:45;;;;;;;2.80;2.70;;;;;;;22.75;37.44;96594.63;5025149;28;20530;-59
2023/04/30 10:03:13;;;;;;;2.70;2.60;;;;;;;22.66;37.60;96598.22;5025322;28;20540;-58
2023/04/30 10:05:41;;;;;;;2.70;2.60;;;;;;;22.56;38.10;96599.38;5025437;28;20081;-57
2023/04/30 10:08:47;;;;;;;2.35;2.33;;;;;;;22.48;38.80;96607.31;5025816;28;20136;-57
2023/04/30 10:11:18;;;;;;;2.47;2.38;;;;;;;22.64;37.57;96608.38;5061757;28;20442;-57
2023/04/30 10:13:54;;;;;;;2.50;2.40;;;;;;;22.79;37.52;96544.47;5062114;28;20052;-57
2023/04/30 10:16:27;;;;;;;3.00;2.90;;;;;;;22.98;37.87;96608.28;5040353;28;20049;-57
2023/04/30 10:18:58;;;;;;;2.50;2.40;;;;;;;21.88;38.24;96594.53;5025229;28;20064;-57
2023/04/30 10:21:26;;;;;;;2.88;2.78;;;;;;;21.99;38.22;96600.59;5025138;28;20132;-58
2023/04/30 10:23:53;;;;;;;2.80;2.70;;;;;;;22.13;37.13;96605.75;5025059;28;20107;-57
2023/04/30 10:26:21;;;;;;;2.22;2.22;;;;;;;22.03;37.23;96592.81;5024779;28;20045;-57
2023/04/30 10:28:49;;;;;;;2.20;2.20;;;;;;;21.45;38.75;96582.31;5023274;28;20580;-59
2023/04/30 10:31:18;;;;;;;2.50;2.40;;;;;;;21.41;38.47;96548.63;5024712;28;20067;-58
2023/04/30 10:34:16;;;;;;;2.85;2.75;;;;;;;22.44;37.80;96601.00;5024378;28;20077;-57
2023/04/30 10:36:49;;;;;;;2.60;2.50;;;;;;;22.51;37.31;96528.59;5024112;28;20551;-57
2023/04/30 10:39:21;;;;;;;2.80;2.70;;;;;;;23.08;35.68;96596.56;5022189;28;20597;-57
2023/04/30 10:41:48;;;;;;;2.97;2.88;;;;;;;23.23;36.14;96597.59;5023677;28;20057;-57
2023/04/30 10:44:20;;;;;;;2.70;2.60;;;;;;;23.18;36.84;96597.41;5022618;28;20049;-58
2023/04/30 10:46:47;;;;;;;3.10;3.00;;;;;;;22.84;36.12;96535.41;5021488;28;20147;-57
2023/04/30 10:49:14;;;;;;;2.70;2.60;;;;;;;21.70;38.36;96517.44;5023311;28;20100;-57
2023/04/30 10:51:53;;;;;;;2.42;2.33;;;;;;;21.68;38.55;96602.47;5021678;28;20115;-57
2023/04/30 10:54:39;;;;;;;2.45;2.35;;;;;;;22.13;38.50;96554.19;5024595;28;20049;-57
2023/04/30 10:57:13;;;;;;;2.60;2.50;;;;;;;22.64;37.45;96588.59;5022711;28;20153;-56
2023/04/30 10:59:51;;;;;;;2.38;2.30;;;;;;;21.72;37.04;96541.09;5023833;28;20587;-56
2023/04/30 11:02:18;;;;;;;2.63;2.53;;;;;;;22.51;35.03;96591.47;5023808;28;20058;-59
2023/04/30 11:05:07;;;;;;;2.80;2.70;;;;;;;22.91;35.30;96580.31;5024190;28;20067;-57
2023/04/30 11:07:35;;;;;;;2.92;2.83;;;;;;;23.63;34.56;96581.41;5024151;28;20049;-57
2023/04/30 11:10:02;;;;;;;2.80;2.70;;;;;;;23.94;33.94;96544.53;5024305;28;20141;-57
2023/04/30 11:12:28;;;;;;;3.35;3.25;;;;;;;23.79;33.57;96520.94;5022564;28;20053;-59
2023/04/30 11:15:06;;;;;;;2.95;2.85;;;;;;;23.70;33.52;96580.34;5024472;28;20072;-56
2023/04/30 11:17:33;;;;;;;2.90;2.80;;;;;;;22.48;35.59;96578.28;5023767;28;20049;-57
2023/04/30 11:20:03;;;;;;;2.88;2.78;;;;;;;23.36;35.67;96583.38;5024256;28;20053;-57
2023/04/30 11:22:34;;;;;;;2.97;2.88;;;;;;;23.72;34.57;96580.66;5023908;28;20527;-57
2023/04/30 11:25:06;;;;;;;2.83;2.72;;;;;;;23.99;33.69;96569.44;5022635;28;20559;-56
2023/04/30 11:27:33;;;;;;;2.65;2.55;;;;;;;22.71;35.62;96577.06;5023838;28;20508;-59
2023/04/30 11:30:01;;;;;;;2.85;2.75;;;;;;;22.49;35.28;96569.34;5023834;28;20080;-56
2023/04/30 11:32:33;;;;;;;2.55;2.45;;;;;;;22.87;35.54;96563.50;5023669;28;20088;-56
2023/04/30 11:35:03;;;;;;;2.85;2.75;;;;;;;23.68;35.45;96560.22;5023810;28;20050;-55
2023/04/30 11:37:38;;;;;;;2.60;2.50;;;;;;;24.21;34.28;96564.41;5023795;28;20049;-55
2023/04/30 11:40:09;;;;;;;2.90;2.80;;;;;;;24.66;33.09;96561.56;5002573;28;20054;-56
2023/04/30 11:42:38;;;;;;;2.78;2.67;;;;;;;24.48;32.75;96561.56;5002426;28;20046;-58